Time,TemperatureF,DewpointF,PressureIn,WindDirection,WindDirectionDegrees,WindSpeedMPH,WindSpeedGustMPH,Humidity,HourlyPrecipIn,Conditions,Clouds,dailyrainin,SoftwareType,DateUTC
2013-04-02 00:58:00,51.0,38.6,30.11,WNW,283,0.0,0.0,62,0.00,,,0.00,Meteorologica,2013-04-02 04:58:00,
2013-04-02 01:00:00,48.5,29.6,30.22,NNE,15,0.7,3.1,47,0.00,,,0.00,Meteorologica,2013-04-02 05:00:00,
2013-04-02 01:01:00,48.3,29.6,30.22,North,4,2.5,3.1,48,0.00,,,0.00,Meteorologica,2013-04-02 05:01:00,
2013-04-02 01:02:00,48.3,29.6,30.22,NNE,13,2.4,3.1,48,0.00,,,0.00,Meteorologica,2013-04-02 05:02:00,
2013-04-02 01:03:00,50.8,38.5,30.10,NW,316,0.0,4.2,62,0.00,,,0.00,Meteorologica,2013-04-02 05:03:00,
2013-04-02 01:04:00,48.3,29.8,30.22,NNE,28,4.7,4.7,48,0.00,,,0.00,Meteorologica,2013-04-02 05:04:00,
2013-04-02 01:05:00,48.4,30.0,30.22,North,0,2.6,6.4,48,0.00,,,0.00,Meteorologica,2013-04-02 05:05:00,
2013-04-02 01:06:00,48.4,30.1,30.22,NNE,22,1.7,6.4,49,0.00,,,0.00,Meteorologica,2013-04-02 05:06:00,
2013-04-02 01:07:00,48.3,30.0,30.22,NNE,18,1.9,6.4,49,0.00,,,0.00,Meteorologica,2013-04-02 05:07:00,
2013-04-02 01:08:00,50.6,38.8,30.10,NNW,340,0.2,1.6,63,0.00,,,0.00,Meteorologica,2013-04-02 05:08:00,
2013-04-02 01:09:00,48.2,30.0,30.22,NNE,28,1.5,6.4,49,0.00,,,0.00,Meteorologica,2013-04-02 05:09:00,
2013-04-02 01:10:00,48.2,30.1,30.22,NNE,30,2.8,4.0,49,0.00,,,0.00,Meteorologica,2013-04-02 05:10:00,
2013-04-02 01:11:00,48.3,30.2,30.22,NNE,16,2.0,4.0,49,0.00,,,0.00,Meteorologica,2013-04-02 05:11:00,
2013-04-02 01:12:00,48.2,30.4,30.22,NNE,19,1.5,4.0,50,0.00,,,0.00,Meteorologica,2013-04-02 05:12:00,
2013-04-02 01:13:00,50.4,38.5,30.10,NNW,335,0.0,3.0,63,0.00,,,0.00,Meteorologica,2013-04-02 05:13:00,
2013-04-02 01:14:00,48.1,30.4,30.22,NNE,20,4.0,4.0,50,0.00,,,0.00,Meteorologica,2013-04-02 05:14:00,
2013-04-02 01:15:00,48.1,30.5,30.22,NNE,32,5.2,7.9,50,0.00,,,0.00,Meteorologica,2013-04-02 05:15:00,
2013-04-02 01:16:00,48.0,30.3,30.22,NNE,18,5.5,7.9,50,0.00,,,0.00,Meteorologica,2013-04-02 05:16:00,
2013-04-02 01:17:00,47.9,30.4,30.22,North,357,4.9,7.9,50,0.00,,,0.00,Meteorologica,2013-04-02 05:17:00,
2013-04-02 01:18:00,50.0,38.4,30.11,NNW,335,0.0,0.0,63,0.00,,,0.00,Meteorologica,2013-04-02 05:18:00,
2013-04-02 01:19:00,47.9,30.5,30.22,North,5,3.6,7.9,50,0.00,,,0.00,Meteorologica,2013-04-02 05:19:00,
2013-04-02 01:20:00,48.1,30.7,30.22,NNW,343,2.3,8.1,50,0.00,,,0.00,Meteorologica,2013-04-02 05:20:00,
2013-04-02 01:21:00,48.0,30.8,30.22,North,3,1.6,8.1,51,0.00,,,0.00,Meteorologica,2013-04-02 05:21:00,
2013-04-02 01:22:00,48.0,30.6,30.22,NNE,31,2.9,8.1,50,0.00,,,0.00,Meteorologica,2013-04-02 05:22:00,
2013-04-02 01:23:00,49.8,38.5,30.10,NNE,14,0.2,3.1,64,0.00,,,0.00,Meteorologica,2013-04-02 05:23:00,
2013-04-02 01:24:00,47.9,30.5,30.22,NNE,13,6.0,8.1,50,0.00,,,0.00,Meteorologica,2013-04-02 05:24:00,
2013-04-02 01:25:00,47.8,30.2,30.22,North,7,5.1,8.8,50,0.00,,,0.00,Meteorologica,2013-04-02 05:25:00,
2013-04-02 01:26:00,47.9,30.1,30.22,NNE,17,5.7,8.8,49,0.00,,,0.00,Meteorologica,2013-04-02 05:26:00,
2013-04-02 01:27:00,47.9,30.1,30.22,North,9,5.3,8.8,49,0.00,,,0.00,Meteorologica,2013-04-02 05:27:00,
2013-04-02 01:28:00,49.5,38.3,30.10,NNE,14,0.0,0.0,64,0.00,,,0.00,Meteorologica,2013-04-02 05:28:00,
2013-04-02 01:29:00,47.7,29.8,30.22,North,355,0.3,8.8,49,0.00,,,0.00,Meteorologica,2013-04-02 05:29:00,
2013-04-02 01:30:00,47.8,29.9,30.22,North,355,0.0,8.6,49,0.00,,,0.00,Meteorologica,2013-04-02 05:30:00,
2013-04-02 01:31:00,47.8,29.8,30.22,NE,51,1.8,8.6,49,0.00,,,0.00,Meteorologica,2013-04-02 05:31:00,
2013-04-02 01:32:00,47.7,29.7,30.22,North,354,3.3,8.6,49,0.00,,,0.00,Meteorologica,2013-04-02 05:32:00,
2013-04-02 01:33:00,49.4,38.3,30.11,NNE,21,0.0,1.7,65,0.00,,,0.00,Meteorologica,2013-04-02 05:33:00,
2013-04-02 01:34:00,47.7,30.0,30.22,NNE,21,3.0,8.6,50,0.00,,,0.00,Meteorologica,2013-04-02 05:34:00,
2013-04-02 01:35:00,47.8,30.0,30.22,North,8,2.8,6.4,50,0.00,,,0.00,Meteorologica,2013-04-02 05:35:00,
2013-04-02 01:36:00,47.7,30.0,30.22,NNE,23,2.4,6.4,50,0.00,,,0.00,Meteorologica,2013-04-02 05:36:00,
2013-04-02 01:37:00,47.8,30.1,30.22,NNE,25,0.8,6.4,50,0.00,,,0.00,Meteorologica,2013-04-02 05:37:00,
2013-04-02 01:38:00,49.1,38.1,30.11,NNE,21,0.0,0.0,65,0.00,,,0.00,Meteorologica,2013-04-02 05:38:00,
2013-04-02 01:39:00,47.7,30.1,30.22,NNW,334,1.9,6.4,50,0.00,,,0.00,Meteorologica,2013-04-02 05:39:00,
2013-04-02 01:40:00,47.7,30.2,30.22,NNW,334,0.3,3.7,50,0.00,,,0.00,Meteorologica,2013-04-02 05:40:00,
2013-04-02 01:41:00,47.7,30.3,30.22,NNE,21,1.8,3.7,50,0.00,,,0.00,Meteorologica,2013-04-02 05:41:00,
2013-04-02 01:42:00,47.7,30.2,30.22,North,7,1.2,3.7,50,0.00,,,0.00,Meteorologica,2013-04-02 05:42:00,
2013-04-02 01:43:00,49.0,38.0,30.11,North,7,2.2,4.5,65,0.00,,,0.00,Meteorologica,2013-04-02 05:43:00,
2013-04-02 01:44:00,47.8,30.5,30.22,North,7,0.0,3.7,50,0.00,,,0.00,Meteorologica,2013-04-02 05:44:00,
2013-04-02 01:45:00,47.6,30.3,30.22,North,7,0.0,4.0,51,0.00,,,0.00,Meteorologica,2013-04-02 05:45:00,
2013-04-02 01:46:00,47.6,30.5,30.22,North,7,0.0,4.0,51,0.00,,,0.00,Meteorologica,2013-04-02 05:46:00,
2013-04-02 01:47:00,47.6,30.4,30.22,North,7,0.0,4.0,51,0.00,,,0.00,Meteorologica,2013-04-02 05:47:00,
2013-04-02 01:48:00,48.8,38.1,30.11,North,11,0.3,3.2,66,0.00,,,0.00,Meteorologica,2013-04-02 05:48:00,
2013-04-02 01:49:00,47.6,30.3,30.22,NNE,16,3.0,4.0,51,0.00,,,0.00,Meteorologica,2013-04-02 05:49:00,
2013-04-02 01:50:00,47.5,30.4,30.22,NNE,26,2.6,5.1,51,0.00,,,0.00,Meteorologica,2013-04-02 05:50:00,
2013-04-02 01:51:00,47.6,30.2,30.22,NE,50,2.7,5.1,50,0.00,,,0.00,Meteorologica,2013-04-02 05:51:00,
2013-04-02 01:52:00,47.5,30.3,30.22,NNE,16,2.0,5.1,51,0.00,,,0.00,Meteorologica,2013-04-02 05:52:00,
2013-04-02 01:53:00,47.5,30.3,30.22,North,5,0.7,5.1,51,0.00,,,0.00,Meteorologica,2013-04-02 05:53:00,
2013-04-02 01:54:00,48.6,37.7,30.11,WSW,239,2.5,3.8,65,0.00,,,0.00,Meteorologica,2013-04-02 05:54:00,
2013-04-02 01:55:00,47.5,30.4,30.22,ENE,59,1.8,3.8,51,0.00,,,0.00,Meteorologica,2013-04-02 05:55:00,
2013-04-02 01:56:00,47.6,30.3,30.22,NNE,19,1.7,3.8,50,0.00,,,0.00,Meteorologica,2013-04-02 05:56:00,
2013-04-02 01:57:00,47.4,30.2,30.22,NNE,15,0.2,3.8,51,0.00,,,0.00,Meteorologica,2013-04-02 05:57:00,
2013-04-02 01:58:00,47.5,30.3,30.22,NNE,15,0.0,3.8,51,0.00,,,0.00,Meteorologica,2013-04-02 05:58:00,
2013-04-02 01:59:00,48.7,37.6,30.11,NNE,16,0.0,3.8,65,0.00,,,0.00,Meteorologica,2013-04-02 05:59:00,
2013-04-02 02:04:00,48.6,37.5,30.11,North,1,2.4,5.1,65,0.00,,,0.00,Meteorologica,2013-04-02 06:04:00,
2013-04-02 02:09:00,48.8,37.7,30.11,NNE,23,2.9,4.7,65,0.00,,,0.00,Meteorologica,2013-04-02 06:09:00,
2013-04-02 02:14:00,48.8,37.7,30.11,WNW,293,5.5,6.8,65,0.00,,,0.00,Meteorologica,2013-04-02 06:14:00,
2013-04-02 02:19:00,48.6,37.3,30.11,WNW,299,3.9,8.1,64,0.00,,,0.00,Meteorologica,2013-04-02 06:19:00,
2013-04-02 02:24:00,48.6,37.5,30.11,NW,313,4.2,5.7,65,0.00,,,0.00,Meteorologica,2013-04-02 06:24:00,
2013-04-02 02:29:00,48.4,37.2,30.11,NNE,15,5.9,8.1,64,0.00,,,0.00,Meteorologica,2013-04-02 06:29:00,
2013-04-02 02:34:00,48.3,37.1,30.11,NNE,22,2.9,9.2,64,0.00,,,0.00,Meteorologica,2013-04-02 06:34:00,
2013-04-02 02:39:00,48.0,36.7,30.11,NNE,17,5.0,7.1,64,0.00,,,0.00,Meteorologica,2013-04-02 06:39:00,
2013-04-02 02:44:00,47.9,36.4,30.12,NNE,32,4.1,7.8,63,0.00,,,0.00,Meteorologica,2013-04-02 06:44:00,
2013-04-02 02:49:00,47.7,35.9,30.13,North,354,4.9,7.7,63,0.00,,,0.00,Meteorologica,2013-04-02 06:49:00,
2013-04-02 02:54:00,47.5,35.4,30.12,NNE,16,4.2,8.3,62,0.00,,,0.00,Meteorologica,2013-04-02 06:54:00,
2013-04-02 02:59:00,47.4,35.2,30.12,NNE,22,3.2,7.8,62,0.00,,,0.00,Meteorologica,2013-04-02 06:59:00,
2013-04-02 03:04:00,47.1,34.9,30.13,NE,36,4.0,7.9,62,0.00,,,0.00,Meteorologica,2013-04-02 07:04:00,
2013-04-02 03:09:00,47.0,34.8,30.13,North,359,3.7,7.2,62,0.00,,,0.00,Meteorologica,2013-04-02 07:09:00,
2013-04-02 03:14:00,46.9,34.7,30.13,NE,50,4.9,6.3,62,0.00,,,0.00,Meteorologica,2013-04-02 07:14:00,
2013-04-02 03:19:00,46.6,34.1,30.12,North,359,2.9,7.3,61,0.00,,,0.00,Meteorologica,2013-04-02 07:19:00,
2013-04-02 03:24:00,46.6,34.6,30.12,North,2,3.5,3.7,62,0.00,,,0.00,Meteorologica,2013-04-02 07:24:00,
2013-04-02 03:29:00,46.2,34.3,30.12,NE,38,1.2,4.4,62,0.00,,,0.00,Meteorologica,2013-04-02 07:29:00,
2013-04-02 03:34:00,46.0,34.8,30.12,NE,38,0.0,2.0,64,0.00,,,0.00,Meteorologica,2013-04-02 07:34:00,
2013-04-02 03:39:00,45.7,34.8,30.13,NE,38,0.0,0.0,65,0.00,,,0.00,Meteorologica,2013-04-02 07:39:00,
2013-04-02 03:44:00,45.3,34.7,30.13,NE,38,0.0,0.0,66,0.00,,,0.00,Meteorologica,2013-04-02 07:44:00,
2013-04-02 03:49:00,45.1,34.5,30.13,NE,39,1.6,4.3,66,0.00,,,0.00,Meteorologica,2013-04-02 07:49:00,
2013-04-02 03:55:00,45.0,34.2,30.13,NE,34,2.4,3.8,65,0.00,,,0.00,Meteorologica,2013-04-02 07:55:00,
2013-04-02 04:00:00,44.8,33.8,30.13,NNE,29,2.1,4.2,64,0.00,,,0.00,Meteorologica,2013-04-02 08:00:00,
2013-04-02 04:05:00,44.9,34.2,30.14,NNE,31,1.5,3.9,65,0.00,,,0.00,Meteorologica,2013-04-02 08:05:00,
2013-04-02 04:10:00,44.7,34.4,30.14,NE,39,1.7,3.7,66,0.00,,,0.00,Meteorologica,2013-04-02 08:10:00,
2013-04-02 04:15:00,44.6,33.6,30.14,North,5,3.5,3.5,64,0.00,,,0.00,Meteorologica,2013-04-02 08:15:00,
2013-04-02 04:22:00,44.4,33.5,30.14,NNE,15,0.0,4.8,65,0.00,,,0.00,Meteorologica,2013-04-02 08:22:00,
2013-04-02 04:27:00,44.3,34.0,30.14,NNE,15,0.0,0.0,66,0.00,,,0.00,Meteorologica,2013-04-02 08:27:00,
2013-04-02 04:32:00,44.0,34.0,30.14,NNE,12,0.0,0.0,67,0.00,,,0.00,Meteorologica,2013-04-02 08:32:00,
2013-04-02 04:37:00,43.6,33.5,30.14,North,0,1.6,3.1,67,0.00,,,0.00,Meteorologica,2013-04-02 08:37:00,
2013-04-02 04:42:00,43.5,33.4,30.15,North,1,0.0,2.6,67,0.00,,,0.00,Meteorologica,2013-04-02 08:42:00,
2013-04-02 04:47:00,43.4,33.4,30.15,NNE,26,0.1,1.4,67,0.00,,,0.00,Meteorologica,2013-04-02 08:47:00,
2013-04-02 04:52:00,43.2,33.2,30.15,NNE,31,0.0,1.7,67,0.00,,,0.00,Meteorologica,2013-04-02 08:52:00,
2013-04-02 04:57:00,43.0,32.9,30.15,NNE,31,0.0,0.7,67,0.00,,,0.00,Meteorologica,2013-04-02 08:57:00,
2013-04-02 05:02:00,43.1,32.9,30.16,NNE,31,0.0,0.0,66,0.00,,,0.00,Meteorologica,2013-04-02 09:02:00,
2013-04-02 05:07:00,42.9,32.5,30.16,NE,40,0.0,0.0,66,0.00,,,0.00,Meteorologica,2013-04-02 09:07:00,
2013-04-02 05:12:00,42.7,32.3,30.15,ENE,63,1.4,5.3,66,0.00,,,0.00,Meteorologica,2013-04-02 09:12:00,
2013-04-02 05:17:00,42.7,32.4,30.16,NE,36,0.0,4.7,66,0.00,,,0.00,Meteorologica,2013-04-02 09:17:00,
2013-04-02 05:22:00,42.5,31.8,30.16,ENE,60,0.1,2.2,65,0.00,,,0.00,Meteorologica,2013-04-02 09:22:00,
2013-04-02 05:27:00,42.6,31.4,30.16,North,5,2.8,3.8,64,0.00,,,0.00,Meteorologica,2013-04-02 09:27:00,
2013-04-02 05:33:00,42.6,31.5,30.16,North,5,0.0,4.9,64,0.00,,,0.00,Meteorologica,2013-04-02 09:33:00,
2013-04-02 05:38:00,42.5,31.7,30.16,NNE,31,1.9,0.0,65,0.00,,,0.00,Meteorologica,2013-04-02 09:38:00,
2013-04-02 05:43:00,42.3,31.5,30.16,North,9,0.0,4.3,65,0.00,,,0.00,Meteorologica,2013-04-02 09:43:00,
2013-04-02 05:48:00,42.2,31.6,30.16,North,4,0.1,3.5,65,0.00,,,0.00,Meteorologica,2013-04-02 09:48:00,
2013-04-02 05:53:00,42.0,31.4,30.17,North,5,1.2,3.5,65,0.00,,,0.00,Meteorologica,2013-04-02 09:53:00,
2013-04-02 05:58:00,41.9,31.0,30.17,North,0,0.0,4.3,64,0.00,,,0.00,Meteorologica,2013-04-02 09:58:00,
2013-04-02 06:03:00,41.8,31.1,30.17,NE,45,0.4,2.0,65,0.00,,,0.00,Meteorologica,2013-04-02 10:03:00,
2013-04-02 06:08:00,41.8,31.0,30.17,NE,55,0.1,2.9,65,0.00,,,0.00,Meteorologica,2013-04-02 10:08:00,
2013-04-02 06:13:00,41.6,30.6,30.18,ENE,58,1.6,7.3,64,0.00,,,0.00,Meteorologica,2013-04-02 10:13:00,
2013-04-02 06:18:00,41.7,30.0,30.18,NNE,19,5.0,6.9,62,0.00,,,0.00,Meteorologica,2013-04-02 10:18:00,
2013-04-02 06:23:00,41.7,29.7,30.19,NNE,14,1.2,8.3,61,0.00,,,0.00,Meteorologica,2013-04-02 10:23:00,
2013-04-02 06:28:00,41.7,29.4,30.19,NE,47,4.7,6.6,61,0.00,,,0.00,Meteorologica,2013-04-02 10:28:00,
2013-04-02 06:33:00,41.7,29.5,30.19,North,354,3.6,6.5,61,0.00,,,0.00,Meteorologica,2013-04-02 10:33:00,
2013-04-02 06:38:00,41.7,29.8,30.19,North,1,1.1,4.7,62,0.00,,,0.00,Meteorologica,2013-04-02 10:38:00,
2013-04-02 06:43:00,41.3,29.4,30.19,NE,48,0.9,2.2,62,0.00,,,0.00,Meteorologica,2013-04-02 10:43:00,
2013-04-02 06:48:00,41.2,29.3,30.19,NE,36,2.1,4.5,62,0.00,,,0.00,Meteorologica,2013-04-02 10:48:00,
2013-04-02 06:53:00,41.0,29.1,30.18,NNE,16,3.7,6.2,62,0.00,,,0.00,Meteorologica,2013-04-02 10:53:00,
2013-04-02 06:58:00,40.9,29.0,30.18,NNE,22,5.9,8.7,62,0.00,,,0.00,Meteorologica,2013-04-02 10:58:00,
2013-04-02 07:04:00,40.8,29.2,30.18,NNE,26,2.4,7.0,62,0.00,,,0.00,Meteorologica,2013-04-02 11:04:00,
2013-04-02 07:09:00,40.6,28.7,30.19,NNE,28,4.5,7.4,62,0.00,,,0.00,Meteorologica,2013-04-02 11:09:00,
2013-04-02 07:14:00,40.6,28.8,30.19,NNE,12,4.0,6.9,62,0.00,,,0.00,Meteorologica,2013-04-02 11:14:00,
2013-04-02 07:19:00,40.6,28.4,30.18,NNW,344,3.8,7.8,61,0.00,,,0.00,Meteorologica,2013-04-02 11:19:00,
2013-04-02 07:24:00,40.5,28.4,30.19,North,5,4.4,6.3,61,0.00,,,0.00,Meteorologica,2013-04-02 11:24:00,
2013-04-02 07:29:00,40.5,28.3,30.19,ENE,57,4.1,9.3,61,0.00,,,0.00,Meteorologica,2013-04-02 11:29:00,
2013-04-02 07:34:00,40.5,28.3,30.19,NE,43,1.1,8.7,61,0.00,,,0.00,Meteorologica,2013-04-02 11:34:00,
2013-04-02 07:39:00,40.4,28.1,30.20,NNE,24,2.9,8.7,61,0.00,,,0.00,Meteorologica,2013-04-02 11:39:00,
2013-04-02 07:44:00,40.5,28.2,30.20,NNE,12,3.3,5.1,61,0.00,,,0.00,Meteorologica,2013-04-02 11:44:00,
2013-04-02 07:49:00,40.4,28.1,30.21,North,10,2.7,5.4,61,0.00,,,0.00,Meteorologica,2013-04-02 11:49:00,
2013-04-02 07:54:00,40.3,28.1,30.21,NNE,19,4.1,6.0,61,0.00,,,0.00,Meteorologica,2013-04-02 11:54:00,
2013-04-02 07:59:00,40.2,28.4,30.22,NNE,28,2.8,5.2,62,0.00,,,0.00,Meteorologica,2013-04-02 11:59:00,
2013-04-02 08:04:00,40.3,28.5,30.22,North,8,3.9,6.0,62,0.00,,,0.00,Meteorologica,2013-04-02 12:04:00,
2013-04-02 08:09:00,40.4,28.5,30.21,NNE,18,3.6,7.1,62,0.00,,,0.00,Meteorologica,2013-04-02 12:09:00,
2013-04-02 08:14:00,40.6,28.6,30.21,North,358,2.8,5.6,61,0.00,,,0.00,Meteorologica,2013-04-02 12:14:00,
2013-04-02 08:19:00,40.9,28.7,30.22,NNE,23,3.0,4.8,61,0.00,,,0.00,Meteorologica,2013-04-02 12:19:00,
2013-04-02 08:24:00,41.1,28.1,30.22,NNE,16,4.8,7.5,59,0.00,,,0.00,Meteorologica,2013-04-02 12:24:00,
2013-04-02 08:29:00,41.2,28.2,30.21,North,357,4.0,7.6,59,0.00,,,0.00,Meteorologica,2013-04-02 12:29:00,
2013-04-02 08:34:00,41.4,28.2,30.22,NNE,14,6.1,8.4,59,0.00,,,0.00,Meteorologica,2013-04-02 12:34:00,
2013-04-02 08:39:00,41.6,27.9,30.22,East,86,7.4,9.1,57,0.00,,,0.00,Meteorologica,2013-04-02 12:39:00,
2013-04-02 08:44:00,41.7,27.6,30.22,North,0,4.3,9.2,57,0.00,,,0.00,Meteorologica,2013-04-02 12:44:00,
2013-04-02 08:49:00,41.7,27.8,30.22,NNE,28,3.2,7.6,57,0.00,,,0.00,Meteorologica,2013-04-02 12:49:00,
2013-04-02 08:54:00,41.6,27.3,30.22,NNE,20,6.8,9.4,56,0.00,,,0.00,Meteorologica,2013-04-02 12:54:00,
2013-04-02 08:59:00,41.6,27.4,30.23,NE,47,5.6,9.9,56,0.00,,,0.00,Meteorologica,2013-04-02 12:59:00,
2013-04-02 09:04:00,41.6,27.2,30.23,NNE,27,4.4,8.6,56,0.00,,,0.00,Meteorologica,2013-04-02 13:04:00,
2013-04-02 09:09:00,41.8,27.6,30.23,NNE,31,5.0,8.2,56,0.00,,,0.00,Meteorologica,2013-04-02 13:09:00,
2013-04-02 09:14:00,41.9,27.3,30.24,NNE,27,4.9,9.2,55,0.00,,,0.00,Meteorologica,2013-04-02 13:14:00,
2013-04-02 09:19:00,42.0,27.4,30.24,North,351,3.4,8.1,55,0.00,,,0.00,Meteorologica,2013-04-02 13:19:00,
2013-04-02 09:24:00,42.1,26.9,30.24,NNE,33,6.4,6.6,54,0.00,,,0.00,Meteorologica,2013-04-02 13:24:00,
2013-04-02 09:29:00,42.2,27.2,30.24,North,11,5.1,9.6,54,0.00,,,0.00,Meteorologica,2013-04-02 13:29:00,
2013-04-02 09:34:00,42.1,26.7,30.24,North,7,4.7,8.0,54,0.00,,,0.00,Meteorologica,2013-04-02 13:34:00,
2013-04-02 09:39:00,42.2,27.7,30.24,NNE,22,2.3,6.8,56,0.00,,,0.00,Meteorologica,2013-04-02 13:39:00,
2013-04-02 09:44:00,42.1,27.0,30.24,NNE,14,3.9,6.5,54,0.00,,,0.00,Meteorologica,2013-04-02 13:44:00,
2013-04-02 09:49:00,42.2,26.8,30.24,NNE,27,5.2,6.4,54,0.00,,,0.00,Meteorologica,2013-04-02 13:49:00,
2013-04-02 09:54:00,42.2,26.6,30.24,NNE,21,5.0,7.3,53,0.00,,,0.00,Meteorologica,2013-04-02 13:54:00,
2013-04-02 09:59:00,42.4,27.0,30.23,NNE,25,3.4,6.7,54,0.00,,,0.00,Meteorologica,2013-04-02 13:59:00,
2013-04-02 10:04:00,42.4,26.4,30.23,NE,46,4.2,8.0,52,0.00,,,0.00,Meteorologica,2013-04-02 14:04:00,
2013-04-02 10:09:00,42.6,26.4,30.23,NNW,341,5.3,7.9,52,0.00,,,0.00,Meteorologica,2013-04-02 14:09:00,
2013-04-02 10:14:00,43.3,26.9,30.23,NE,36,3.9,7.8,52,0.00,,,0.00,Meteorologica,2013-04-02 14:14:00,
2013-04-02 10:19:00,44.2,26.1,30.23,NNE,31,6.6,8.4,48,0.00,,,0.00,Meteorologica,2013-04-02 14:19:00,
2013-04-02 10:24:00,45.0,27.0,30.23,SE,141,3.9,7.8,49,0.00,,,0.00,Meteorologica,2013-04-02 14:24:00,
2013-04-02 10:29:00,45.3,27.1,30.23,North,5,3.4,7.5,48,0.00,,,0.00,Meteorologica,2013-04-02 14:29:00,
2013-04-02 10:35:00,45.3,26.6,30.23,North,354,4.2,7.9,47,0.00,,,0.00,Meteorologica,2013-04-02 14:35:00,
2013-04-02 10:40:00,45.5,26.1,30.24,NNW,346,5.3,8.2,46,0.00,,,0.00,Meteorologica,2013-04-02 14:40:00,
2013-04-02 10:45:00,46.1,26.3,30.24,SE,133,6.9,6.9,45,0.00,,,0.00,Meteorologica,2013-04-02 14:45:00,
2013-04-02 10:50:00,46.7,26.5,30.24,NNE,15,4.7,8.9,45,0.00,,,0.00,Meteorologica,2013-04-02 14:50:00,
2013-04-02 10:55:00,46.7,26.0,30.24,North,350,3.5,9.2,44,0.00,,,0.00,Meteorologica,2013-04-02 14:55:00,
2013-04-02 11:00:00,46.7,26.3,30.24,NNW,335,2.7,6.7,45,0.00,,,0.00,Meteorologica,2013-04-02 15:00:00,
2013-04-02 11:05:00,46.7,26.4,30.24,NNE,16,2.6,7.8,45,0.00,,,0.00,Meteorologica,2013-04-02 15:05:00,
2013-04-02 11:10:00,46.7,26.3,30.24,NNE,21,2.4,6.2,44,0.00,,,0.00,Meteorologica,2013-04-02 15:10:00,
2013-04-02 11:15:00,46.7,25.4,30.24,NW,312,4.5,6.9,43,0.00,,,0.00,Meteorologica,2013-04-02 15:15:00,
2013-04-02 11:20:00,46.6,25.2,30.24,NE,39,4.4,7.1,43,0.00,,,0.00,Meteorologica,2013-04-02 15:20:00,
2013-04-02 11:25:00,46.5,25.8,30.25,NNE,26,2.7,6.6,44,0.00,,,0.00,Meteorologica,2013-04-02 15:25:00,
2013-04-02 11:30:00,46.5,24.6,30.25,NE,49,3.5,4.8,42,0.00,,,0.00,Meteorologica,2013-04-02 15:30:00,
2013-04-02 11:35:00,46.7,24.7,30.25,NNE,12,2.2,8.1,42,0.00,,,0.00,Meteorologica,2013-04-02 15:35:00,
2013-04-02 11:40:00,46.8,23.9,30.25,North,4,4.1,6.9,41,0.00,,,0.00,Meteorologica,2013-04-02 15:40:00,
2013-04-02 11:45:00,46.6,25.3,30.25,NNE,22,1.1,8.6,43,0.00,,,0.00,Meteorologica,2013-04-02 15:45:00,
2013-04-02 11:50:00,46.7,24.7,30.25,North,9,4.9,7.8,42,0.00,,,0.00,Meteorologica,2013-04-02 15:50:00,
2013-04-02 11:55:00,47.2,26.0,30.25,NNE,19,2.6,7.6,43,0.00,,,0.00,Meteorologica,2013-04-02 15:55:00,
2013-04-02 12:00:00,47.9,26.4,30.25,NE,42,2.6,7.2,43,0.00,,,0.00,Meteorologica,2013-04-02 16:00:00,
2013-04-02 12:06:00,48.7,27.2,30.25,West,266,3.5,4.5,43,0.00,,,0.00,Meteorologica,2013-04-02 16:06:00,
2013-04-02 13:00:00,51.4,28.5,30.22,ENE,70,2.5,2.9,41,0.00,,,0.00,Meteorologica,2013-04-02 17:00:00,
2013-04-02 13:05:00,51.9,26.3,30.22,ENE,64,3.7,7.3,37,0.00,,,0.00,Meteorologica,2013-04-02 17:05:00,
2013-04-02 13:10:00,52.4,26.6,30.22,ENE,74,1.1,8.0,36,0.00,,,0.00,Meteorologica,2013-04-02 17:10:00,
2013-04-02 13:15:00,53.0,27.4,30.22,ENE,74,0.0,4.2,36,0.00,,,0.00,Meteorologica,2013-04-02 17:15:00,
2013-04-02 13:20:00,53.2,27.7,30.22,NNE,23,0.0,4.7,37,0.00,,,0.00,Meteorologica,2013-04-02 17:20:00,
2013-04-02 13:25:00,52.9,25.3,30.22,North,355,6.6,8.9,34,0.00,,,0.00,Meteorologica,2013-04-02 17:25:00,
2013-04-02 13:30:00,52.9,26.6,30.22,North,2,5.6,10.0,36,0.00,,,0.00,Meteorologica,2013-04-02 17:30:00,
2013-04-02 13:35:00,52.8,25.6,30.22,NNW,346,4.7,8.2,34,0.00,,,0.00,Meteorologica,2013-04-02 17:35:00,
2013-04-02 13:40:00,52.3,24.7,30.22,North,0,1.5,7.3,34,0.00,,,0.00,Meteorologica,2013-04-02 17:40:00,
2013-04-02 13:45:00,52.0,25.1,30.21,NE,35,5.3,5.9,35,0.00,,,0.00,Meteorologica,2013-04-02 17:45:00,
2013-04-02 13:50:00,51.7,24.6,30.21,NW,311,2.1,6.6,34,0.00,,,0.00,Meteorologica,2013-04-02 17:50:00,
2013-04-02 13:55:00,52.1,25.9,30.21,NNE,22,0.2,6.6,35,0.00,,,0.00,Meteorologica,2013-04-02 17:55:00,
2013-04-02 14:00:00,52.6,24.2,30.21,NW,316,0.0,7.5,33,0.00,,,0.00,Meteorologica,2013-04-02 18:00:00,
2013-04-02 14:05:00,53.3,26.3,30.20,NE,36,3.6,8.3,35,0.00,,,0.00,Meteorologica,2013-04-02 18:05:00,
2013-04-02 14:10:00,53.7,25.8,30.20,NE,49,0.1,9.6,34,0.00,,,0.00,Meteorologica,2013-04-02 18:10:00,
2013-04-02 14:15:00,54.3,25.3,30.20,NE,49,0.0,1.1,32,0.00,,,0.00,Meteorologica,2013-04-02 18:15:00,
2013-04-02 14:20:00,54.9,25.3,30.20,NNE,25,2.9,0.0,31,0.00,,,0.00,Meteorologica,2013-04-02 18:20:00,
2013-04-02 14:25:00,54.8,24.8,30.19,North,8,7.0,7.0,31,0.00,,,0.00,Meteorologica,2013-04-02 18:25:00,
2013-04-02 14:30:00,54.4,25.0,30.20,NNE,25,4.8,9.2,32,0.00,,,0.00,Meteorologica,2013-04-02 18:30:00,
2013-04-02 14:35:00,54.2,24.6,30.19,WSW,248,6.5,9.0,31,0.00,,,0.00,Meteorologica,2013-04-02 18:35:00,
2013-04-02 14:40:00,54.1,26.3,30.19,ENE,64,0.0,8.7,34,0.00,,,0.00,Meteorologica,2013-04-02 18:40:00,
2013-04-02 14:45:00,54.5,25.3,30.19,NNE,30,3.6,3.6,32,0.00,,,0.00,Meteorologica,2013-04-02 18:45:00,
2013-04-02 14:51:00,54.7,26.3,30.19,North,7,0.0,6.6,33,0.00,,,0.00,Meteorologica,2013-04-02 18:51:00,
2013-04-02 14:56:00,55.3,24.1,30.19,SSW,193,1.5,1.8,29,0.00,,,0.00,Meteorologica,2013-04-02 18:56:00,
2013-04-02 15:01:00,55.8,25.9,30.19,ENE,73,0.0,4.3,31,0.00,,,0.00,Meteorologica,2013-04-02 19:01:00,
2013-04-02 15:06:00,56.3,26.8,30.18,NE,46,1.4,6.8,32,0.00,,,0.00,Meteorologica,2013-04-02 19:06:00,
2013-04-02 15:11:00,56.4,25.8,30.18,NNE,26,1.3,7.3,30,0.00,,,0.00,Meteorologica,2013-04-02 19:11:00,
2013-04-02 15:16:00,56.6,27.0,30.18,NNE,25,2.1,4.1,32,0.00,,,0.00,Meteorologica,2013-04-02 19:16:00,
2013-04-02 15:22:00,56.3,27.5,30.18,ENE,66,1.5,3.2,33,0.00,,,0.00,Meteorologica,2013-04-02 19:22:00,
2013-04-02 15:27:00,56.1,27.2,30.17,NE,36,0.0,5.2,33,0.00,,,0.00,Meteorologica,2013-04-02 19:27:00,
2013-04-02 15:32:00,56.3,27.2,30.17,ESE,121,5.3,0.0,32,0.00,,,0.00,Meteorologica,2013-04-02 19:32:00,
2013-04-02 15:37:00,56.1,25.7,30.17,NNE,17,3.0,7.4,31,0.00,,,0.00,Meteorologica,2013-04-02 19:37:00,
2013-04-02 15:42:00,56.0,26.0,30.17,NW,307,0.0,6.5,31,0.00,,,0.00,Meteorologica,2013-04-02 19:42:00,
2013-04-02 15:47:00,56.3,26.4,30.17,NW,307,0.0,3.0,31,0.00,,,0.00,Meteorologica,2013-04-02 19:47:00,
2013-04-02 15:53:00,56.6,27.2,30.17,NW,307,0.0,0.0,32,0.00,,,0.00,Meteorologica,2013-04-02 19:53:00,
2013-04-02 15:58:00,56.6,26.4,30.17,NW,307,0.0,0.0,30,0.00,,,0.00,Meteorologica,2013-04-02 19:58:00,
2013-04-02 16:03:00,56.4,25.9,30.17,WNW,288,3.1,0.0,30,0.00,,,0.00,Meteorologica,2013-04-02 20:03:00,
2013-04-02 16:08:00,56.5,25.8,30.17,SW,225,0.3,4.5,30,0.00,,,0.00,Meteorologica,2013-04-02 20:08:00,
2013-04-02 16:13:00,56.3,26.8,30.17,WSW,248,0.0,4.0,32,0.00,,,0.00,Meteorologica,2013-04-02 20:13:00,
2013-04-02 16:18:00,56.3,26.2,30.17,NW,319,2.6,4.0,31,0.00,,,0.00,Meteorologica,2013-04-02 20:18:00,
2013-04-02 16:23:00,56.1,26.4,30.16,NNE,25,2.1,3.4,32,0.00,,,0.00,Meteorologica,2013-04-02 20:23:00,
2013-04-02 16:28:00,56.1,25.2,30.16,NNE,17,5.9,8.0,30,0.00,,,0.00,Meteorologica,2013-04-02 20:28:00,
2013-04-02 16:33:00,55.7,26.4,30.16,North,5,3.7,7.0,32,0.00,,,0.00,Meteorologica,2013-04-02 20:33:00,
2013-04-02 16:38:00,55.5,25.3,30.16,WNW,297,4.1,6.0,31,0.00,,,0.00,Meteorologica,2013-04-02 20:38:00,
2013-04-02 16:43:00,55.3,25.7,30.16,WNW,297,0.0,4.2,32,0.00,,,0.00,Meteorologica,2013-04-02 20:43:00,
2013-04-02 16:48:00,55.0,25.9,30.16,WNW,302,1.5,2.7,32,0.00,,,0.00,Meteorologica,2013-04-02 20:48:00,
2013-04-02 16:54:00,54.9,24.9,30.16,WNW,301,3.8,4.7,31,0.00,,,0.00,Meteorologica,2013-04-02 20:54:00,
2013-04-02 16:59:00,55.0,26.4,30.16,WNW,293,0.0,4.3,33,0.00,,,0.00,Meteorologica,2013-04-02 20:59:00,
2013-04-02 17:04:00,54.9,25.0,30.16,North,358,4.8,6.0,31,0.00,,,0.00,Meteorologica,2013-04-02 21:04:00,
2013-04-02 17:09:00,55.0,23.1,30.16,NNE,21,3.9,7.8,29,0.00,,,0.00,Meteorologica,2013-04-02 21:09:00,
2013-04-02 17:14:00,54.9,24.1,30.16,North,7,3.4,5.6,30,0.00,,,0.00,Meteorologica,2013-04-02 21:14:00,
2013-04-02 17:19:00,54.6,24.2,30.16,NE,52,3.1,8.1,30,0.00,,,0.00,Meteorologica,2013-04-02 21:19:00,
2013-04-02 17:24:00,54.5,25.9,30.16,NNW,330,0.0,6.8,33,0.00,,,0.00,Meteorologica,2013-04-02 21:24:00,
2013-04-02 17:29:00,54.5,25.7,30.16,NNW,342,0.4,4.0,32,0.00,,,0.00,Meteorologica,2013-04-02 21:29:00,
2013-04-02 17:34:00,54.5,24.9,30.16,NE,46,2.4,5.6,31,0.00,,,0.00,Meteorologica,2013-04-02 21:34:00,
2013-04-02 17:39:00,54.4,23.8,30.16,North,1,2.6,5.5,30,0.00,,,0.00,Meteorologica,2013-04-02 21:39:00,
2013-04-02 17:44:00,54.3,22.8,30.16,NNE,19,3.5,6.4,29,0.00,,,0.00,Meteorologica,2013-04-02 21:44:00,
2013-04-02 17:49:00,54.4,23.4,30.17,NW,307,2.5,6.8,29,0.00,,,0.00,Meteorologica,2013-04-02 21:49:00,
2013-04-02 17:54:00,54.5,24.4,30.17,North,8,4.1,8.8,31,0.00,,,0.00,Meteorologica,2013-04-02 21:54:00,
2013-04-02 17:59:00,54.4,24.0,30.17,WNW,296,3.3,7.6,30,0.00,,,0.00,Meteorologica,2013-04-02 21:59:00,
2013-04-02 18:04:00,54.5,24.0,30.16,NNE,28,1.9,6.3,30,0.00,,,0.00,Meteorologica,2013-04-02 22:04:00,
2013-04-02 18:09:00,54.4,25.0,30.17,NW,323,0.1,6.1,31,0.00,,,0.00,Meteorologica,2013-04-02 22:09:00,
2013-04-02 18:15:00,54.4,25.2,30.16,North,7,0.3,6.1,32,0.00,,,0.00,Meteorologica,2013-04-02 22:15:00,
2013-04-02 18:20:00,54.2,25.1,30.17,NNE,22,3.0,5.1,32,0.00,,,0.00,Meteorologica,2013-04-02 22:20:00,
2013-04-02 18:25:00,54.1,25.5,30.17,NNE,14,2.2,4.8,33,0.00,,,0.00,Meteorologica,2013-04-02 22:25:00,
2013-04-02 18:30:00,53.9,25.6,30.17,North,350,1.8,5.2,33,0.00,,,0.00,Meteorologica,2013-04-02 22:30:00,
2013-04-02 18:35:00,53.7,24.5,30.18,NNE,22,4.2,7.2,32,0.00,,,0.00,Meteorologica,2013-04-02 22:35:00,
2013-04-02 18:40:00,53.5,25.1,30.17,North,3,3.4,8.2,33,0.00,,,0.00,Meteorologica,2013-04-02 22:40:00,
2013-04-02 18:45:00,53.4,25.6,30.17,North,354,2.9,6.4,34,0.00,,,0.00,Meteorologica,2013-04-02 22:45:00,
2013-04-02 18:50:00,53.0,25.7,30.18,NE,45,0.7,5.6,34,0.00,,,0.00,Meteorologica,2013-04-02 22:50:00,
2013-04-02 18:55:00,52.8,26.5,30.18,North,0,3.3,7.9,36,0.00,,,0.00,Meteorologica,2013-04-02 22:55:00,
2013-04-02 19:01:00,52.4,25.2,30.18,NNE,15,0.8,8.4,34,0.00,,,0.00,Meteorologica,2013-04-02 23:01:00,
2013-04-02 19:06:00,52.1,24.4,30.18,North,4,3.0,5.2,34,0.00,,,0.00,Meteorologica,2013-04-02 23:06:00,
2013-04-02 19:11:00,52.0,24.7,30.18,North,9,0.0,5.3,34,0.00,,,0.00,Meteorologica,2013-04-02 23:11:00,
2013-04-02 19:16:00,51.9,25.9,30.18,NNE,23,0.7,4.4,36,0.00,,,0.00,Meteorologica,2013-04-02 23:16:00,
2013-04-02 19:22:00,51.7,25.1,30.18,NE,36,3.1,4.3,35,0.00,,,0.00,Meteorologica,2013-04-02 23:22:00,
2013-04-02 19:27:00,51.4,25.2,30.18,NNE,28,1.1,6.8,36,0.00,,,0.00,Meteorologica,2013-04-02 23:27:00,
2013-04-02 19:32:00,51.3,25.5,30.18,NNE,28,2.4,4.3,36,0.00,,,0.00,Meteorologica,2013-04-02 23:32:00,
2013-04-02 19:37:00,51.3,25.7,30.17,NNE,18,0.0,5.5,36,0.00,,,0.00,Meteorologica,2013-04-02 23:37:00,
2013-04-02 19:42:00,51.2,25.4,30.17,NNW,333,2.6,3.3,36,0.00,,,0.00,Meteorologica,2013-04-02 23:42:00,
2013-04-02 19:47:00,51.3,26.0,30.17,NW,326,0.0,5.1,37,0.00,,,0.00,Meteorologica,2013-04-02 23:47:00,
2013-04-02 19:53:00,51.3,25.7,30.18,NNE,22,0.0,1.8,36,0.00,,,0.00,Meteorologica,2013-04-02 23:53:00,
2013-04-02 19:58:00,51.1,25.3,30.17,NNE,18,0.4,2.5,36,0.00,,,0.00,Meteorologica,2013-04-02 23:58:00,
2013-04-02 20:03:00,51.0,25.8,30.17,NNE,28,0.5,2.0,37,0.00,,,0.00,Meteorologica,2013-04-03 00:03:00,
2013-04-02 20:08:00,51.2,26.3,30.18,NNE,28,0.0,1.9,38,0.00,,,0.00,Meteorologica,2013-04-03 00:08:00,
2013-04-02 20:13:00,51.0,27.2,30.18,NNE,28,0.0,0.0,39,0.00,,,0.00,Meteorologica,2013-04-03 00:13:00,
2013-04-02 20:18:00,50.9,26.1,30.18,NNE,28,0.0,0.0,38,0.00,,,0.00,Meteorologica,2013-04-03 00:18:00,
2013-04-02 20:23:00,50.9,25.7,30.18,NNE,22,3.5,0.0,37,0.00,,,0.00,Meteorologica,2013-04-03 00:23:00,
2013-04-02 20:28:00,50.7,25.4,30.18,NNE,27,2.7,4.8,37,0.00,,,0.00,Meteorologica,2013-04-03 00:28:00,
2013-04-02 20:33:00,50.7,25.3,30.18,NNE,15,3.7,5.8,37,0.00,,,0.00,Meteorologica,2013-04-03 00:33:00,
2013-04-02 20:39:00,50.7,25.3,30.18,North,2,1.0,5.4,37,0.00,,,0.00,Meteorologica,2013-04-03 00:39:00,
2013-04-02 20:44:00,50.6,25.9,30.18,NNE,28,0.0,2.8,38,0.00,,,0.00,Meteorologica,2013-04-03 00:44:00,
2013-04-02 20:49:00,50.6,25.6,30.18,NNE,22,1.0,3.5,37,0.00,,,0.00,Meteorologica,2013-04-03 00:49:00,
2013-04-02 20:54:00,50.5,25.7,30.18,NNE,22,0.0,2.5,37,0.00,,,0.00,Meteorologica,2013-04-03 00:54:00,
2013-04-02 20:59:00,50.5,25.8,30.18,NNE,22,0.0,0.0,38,0.00,,,0.00,Meteorologica,2013-04-03 00:59:00,
2013-04-02 21:04:00,50.5,26.3,30.18,NNE,22,0.0,0.0,39,0.00,,,0.00,Meteorologica,2013-04-03 01:04:00,
2013-04-02 21:09:00,50.3,26.5,30.18,NNE,22,0.0,0.0,39,0.00,,,0.00,Meteorologica,2013-04-03 01:09:00,
2013-04-02 21:14:00,50.3,26.9,30.18,NNE,22,0.0,0.0,40,0.00,,,0.00,Meteorologica,2013-04-03 01:14:00,
2013-04-02 21:20:00,50.3,26.8,30.18,NNE,22,0.0,0.0,40,0.00,,,0.00,Meteorologica,2013-04-03 01:20:00,
2013-04-02 21:25:00,50.4,27.1,30.18,NNE,22,0.0,0.0,40,0.00,,,0.00,Meteorologica,2013-04-03 01:25:00,
2013-04-02 21:30:00,50.2,26.9,30.19,NNE,22,0.0,0.0,40,0.00,,,0.00,Meteorologica,2013-04-03 01:30:00,
2013-04-02 21:36:00,50.1,27.0,30.19,NNE,22,0.0,0.0,40,0.00,,,0.00,Meteorologica,2013-04-03 01:36:00,
2013-04-02 21:41:00,50.1,27.3,30.19,NNE,22,0.0,0.0,41,0.00,,,0.00,Meteorologica,2013-04-03 01:41:00,
2013-04-02 21:46:00,50.1,27.4,30.19,NNE,22,0.0,0.0,41,0.00,,,0.00,Meteorologica,2013-04-03 01:46:00,
2013-04-02 21:51:00,50.0,26.8,30.19,NNE,14,2.4,3.6,40,0.00,,,0.00,Meteorologica,2013-04-03 01:51:00,
2013-04-02 21:57:00,49.9,27.1,30.19,NNE,18,2.7,5.1,41,0.00,,,0.00,Meteorologica,2013-04-03 01:57:00,
2013-04-02 22:02:00,49.9,26.9,30.19,NNE,21,3.0,5.2,40,0.00,,,0.00,Meteorologica,2013-04-03 02:02:00,
2013-04-02 22:07:00,49.8,26.8,30.19,NNE,16,5.9,6.3,40,0.00,,,0.00,Meteorologica,2013-04-03 02:07:00,
2013-04-02 22:12:00,49.8,27.4,30.19,North,7,2.0,7.6,41,0.00,,,0.00,Meteorologica,2013-04-03 02:12:00,
2013-04-02 22:18:00,49.8,27.2,30.19,NNW,344,1.4,4.6,41,0.00,,,0.00,Meteorologica,2013-04-03 02:18:00,
2013-04-02 22:23:00,49.7,26.9,30.19,North,358,4.6,4.8,41,0.00,,,0.00,Meteorologica,2013-04-03 02:23:00,
2013-04-02 22:28:00,49.7,27.4,30.19,NNE,22,3.5,6.4,41,0.00,,,0.00,Meteorologica,2013-04-03 02:28:00,
2013-04-02 22:33:00,49.6,27.1,30.20,NNE,23,4.5,8.1,41,0.00,,,0.00,Meteorologica,2013-04-03 02:33:00,
2013-04-02 22:38:00,49.4,27.3,30.20,NNE,24,4.1,6.6,42,0.00,,,0.00,Meteorologica,2013-04-03 02:38:00,
2013-04-02 22:43:00,49.5,27.9,30.20,NNE,29,2.8,7.4,43,0.00,,,0.00,Meteorologica,2013-04-03 02:43:00,
2013-04-02 22:48:00,49.4,27.9,30.21,NNE,15,3.5,6.5,43,0.00,,,0.00,Meteorologica,2013-04-03 02:48:00,
2013-04-02 22:54:00,49.3,28.0,30.21,North,9,0.0,5.8,43,0.00,,,0.00,Meteorologica,2013-04-03 02:54:00,
2013-04-02 22:59:00,49.3,28.4,30.21,North,9,0.0,0.0,44,0.00,,,0.00,Meteorologica,2013-04-03 02:59:00,
2013-04-02 23:04:00,49.2,28.6,30.21,North,351,2.3,4.6,44,0.00,,,0.00,Meteorologica,2013-04-03 03:04:00,
2013-04-02 23:09:00,49.1,28.3,30.21,NE,37,4.0,6.8,44,0.00,,,0.00,Meteorologica,2013-04-03 03:09:00,
2013-04-02 23:14:00,49.0,28.0,30.21,North,2,4.3,6.7,44,0.00,,,0.00,Meteorologica,2013-04-03 03:14:00,
2013-04-02 23:19:00,49.0,28.6,30.20,NNE,15,0.7,5.8,45,0.00,,,0.00,Meteorologica,2013-04-03 03:19:00,
2013-04-02 23:24:00,49.0,28.5,30.20,NNE,22,1.8,8.0,45,0.00,,,0.00,Meteorologica,2013-04-03 03:24:00,
2013-04-02 23:29:00,48.8,28.6,30.21,NNE,19,2.0,6.6,45,0.00,,,0.00,Meteorologica,2013-04-03 03:29:00,
2013-04-02 23:34:00,48.8,29.1,30.21,NE,35,1.5,4.4,46,0.00,,,0.00,Meteorologica,2013-04-03 03:34:00,
2013-04-02 23:39:00,48.6,29.1,30.22,ESE,121,1.9,5.7,46,0.00,,,0.00,Meteorologica,2013-04-03 03:39:00,
2013-04-02 23:44:00,48.6,29.1,30.21,NNE,18,1.9,5.6,46,0.00,,,0.00,Meteorologica,2013-04-03 03:44:00,
2013-04-02 23:49:00,48.5,29.3,30.22,NNE,32,2.3,4.8,47,0.00,,,0.00,Meteorologica,2013-04-03 03:49:00,
2013-04-02 23:54:00,48.4,29.5,30.22,NNE,21,0.0,3.0,48,0.00,,,0.00,Meteorologica,2013-04-03 03:54:00,